Bethel, Oklahoma
Current Conditions -  °F | °C
As of 5:55 PM on Monday 22 Dec 2014 (Local Time) from K4O4 Reporting Station
Broken Clouds Broken Clouds  
Wind Chill: 59°   Ceiling: 5000
Heat Index: 59°   Visibility: 10mi
Dew Point: 46°   Wind: 7mph
Humidity: 63%   Direction: 290°WNW
Pressure: 29.61"   Gusts: NA
Location:  34.36°N, 94.84°W
Report Text: K4O4 222355Z AUTO 29006KT 10SM SCT040 BKN050 15/08 A2961 RMK AO2
Loading
Personal Weather Stations






























Interactive Weather Map New forecast layout! Learn more

10-Day Weather Forecast

Advertisements
Track Severe Weather on mobile